Douglas, Alaska
Current Conditions -  °F | °C
As of 9:53 PM on Friday 19 Dec 2014 (Local Time) from PAJN Reporting Station
Overcast Overcast  
Wind Chill: 30°   Ceiling: 5500
Heat Index: 34°   Visibility: 10mi
Dew Point: 31°   Wind: 5mph
Humidity: 89%   Direction: 260°W
Pressure: 29.24"   Gusts: NA
Location:  58.27°N, 134.41°W
Report Text: PAJN 200653Z 26004KT 10SM FEW004 BKN055 OVC070 01/M01 A2924 RMK AO2 SLP902 T00111006
Loading
Personal Weather Stations






























Interactive Weather Map New forecast layout! Learn more

10-Day Weather Forecast

Advertisements
Track Severe Weather on mobile